EWG5240 EDDL-EDDP
Flight info
| Callsign | EWG5240 |
|---|---|
| Flight time | 0h 42m |
| Altitude | 23000 |
| Route | NUDGO5Z/05R NUDGO Z858 BERDI T958 KOJEC KOJEC1R |
| Aircraft | A319/M-SDE3FGHIRWY/LB1 |
Departure
| Time | 2026-05-07 18:42 |
|---|---|
| Airport | Düsseldorf Airport (EDDL) |
Arrival
| Time | 2026-05-07 19:25 |
|---|---|
| Airport | Leipzig/Halle Airport (EDDP) |
| Time | Latitude | Longitude | Altitude | Speed | Heading |
|---|---|---|---|---|---|
| 2026-05-07 18:07 | 51.28042 | 6.76367 | 118 ft | 0 kts | 197° |
| 2026-05-07 18:33 | 51.28045 | 6.76369 | 114 ft | 2 kts | 196° |
| 2026-05-07 18:33 | 51.28062 | 6.76375 | 117 ft | 3 kts | 183° |
| 2026-05-07 18:33 | 51.28082 | 6.76375 | 117 ft | 3 kts | 167° |
| 2026-05-07 18:33 | 51.28102 | 6.76365 | 118 ft | 3 kts | 153° |
| 2026-05-07 18:34 | 51.28119 | 6.76349 | 115 ft | 3 kts | 142° |
| 2026-05-07 18:34 | 51.28134 | 6.76328 | 113 ft | 3 kts | 134° |
| 2026-05-07 18:34 | 51.28144 | 6.76312 | 113 ft | 1 kts | 134° |
| 2026-05-07 18:34 | 51.28155 | 6.76292 | 115 ft | 3 kts | 120° |
| 2026-05-07 18:35 | 51.28162 | 6.76264 | 117 ft | 3 kts | 86° |
| 2026-05-07 18:35 | 51.28157 | 6.76234 | 114 ft | 3 kts | 54° |
| 2026-05-07 18:35 | 51.28144 | 6.76210 | 116 ft | 3 kts | 39° |
| 2026-05-07 18:35 | 51.28127 | 6.76191 | 113 ft | 3 kts | 35° |
| 2026-05-07 18:36 | 51.28113 | 6.76173 | 117 ft | 2 kts | 49° |
| 2026-05-07 18:36 | 51.28110 | 6.76169 | 117 ft | 0 kts | 53° |
| 2026-05-07 18:38 | 51.28112 | 6.76172 | 118 ft | 2 kts | 53° |
| 2026-05-07 18:39 | 51.28128 | 6.76206 | 115 ft | 5 kts | 53° |
| 2026-05-07 18:39 | 51.28162 | 6.76252 | 117 ft | 8 kts | 19° |
| 2026-05-07 18:39 | 51.28205 | 6.76211 | 117 ft | 9 kts | 288° |
| 2026-05-07 18:39 | 51.28177 | 6.76119 | 118 ft | 11 kts | 232° |
| 2026-05-07 18:40 | 51.28127 | 6.76014 | 118 ft | 13 kts | 233° |
| 2026-05-07 18:40 | 51.28067 | 6.75889 | 117 ft | 15 kts | 232° |
| 2026-05-07 18:40 | 51.28003 | 6.75753 | 117 ft | 12 kts | 232° |
| 2026-05-07 18:40 | 51.27955 | 6.75653 | 118 ft | 8 kts | 233° |
| 2026-05-07 18:41 | 51.27952 | 6.75572 | 118 ft | 9 kts | 301° |
| 2026-05-07 18:41 | 51.28011 | 6.75512 | 116 ft | 11 kts | 333° |
| 2026-05-07 18:41 | 51.28071 | 6.75464 | 115 ft | 8 kts | 348° |
| 2026-05-07 18:41 | 51.28129 | 6.75551 | 117 ft | 24 kts | 52° |
| 2026-05-07 18:42 | 51.28377 | 6.76070 | 117 ft | 91 kts | 52° |
| 2026-05-07 18:42 | 51.28686 | 6.76720 | 118 ft | 129 kts | 53° |
| 2026-05-07 18:42 | 51.29277 | 6.77973 | 491 ft | 142 kts | 54° |
| 2026-05-07 18:42 | 51.29868 | 6.79242 | 1140 ft | 142 kts | 53° |
| 2026-05-07 18:43 | 51.30484 | 6.80550 | 1575 ft | 159 kts | 53° |
| 2026-05-07 18:43 | 51.31197 | 6.82050 | 1987 ft | 179 kts | 53° |
| 2026-05-07 18:43 | 51.31997 | 6.83726 | 2403 ft | 202 kts | 53° |
| 2026-05-07 18:43 | 51.32910 | 6.85641 | 2766 ft | 230 kts | 53° |
| 2026-05-07 18:44 | 51.33910 | 6.87789 | 3369 ft | 250 kts | 54° |
| 2026-05-07 18:44 | 51.35078 | 6.89901 | 4267 ft | 259 kts | 35° |
| 2026-05-07 18:44 | 51.36755 | 6.90924 | 5337 ft | 261 kts | 7° |
| 2026-05-07 18:44 | 51.38564 | 6.91251 | 6459 ft | 264 kts | 7° |
| 2026-05-07 18:45 | 51.40394 | 6.91719 | 7408 ft | 269 kts | 9° |
| 2026-05-07 18:45 | 51.42185 | 6.92674 | 8336 ft | 274 kts | 21° |
| 2026-05-07 18:45 | 51.43976 | 6.93842 | 9224 ft | 282 kts | 21° |
| 2026-05-07 18:45 | 51.45815 | 6.95033 | 10090 ft | 289 kts | 21° |
| 2026-05-07 18:46 | 51.47737 | 6.96271 | 10547 ft | 309 kts | 21° |
| 2026-05-07 18:46 | 51.49808 | 6.97607 | 10849 ft | 332 kts | 21° |
| 2026-05-07 18:46 | 51.51996 | 6.99021 | 11421 ft | 344 kts | 21° |
| 2026-05-07 18:46 | 51.54229 | 7.00473 | 12178 ft | 349 kts | 21° |
| 2026-05-07 18:47 | 51.56492 | 7.01947 | 12936 ft | 353 kts | 21° |
| 2026-05-07 18:47 | 51.58784 | 7.03440 | 13704 ft | 357 kts | 21° |
| 2026-05-07 18:47 | 51.61100 | 7.04952 | 14387 ft | 361 kts | 21° |
| 2026-05-07 18:47 | 51.63443 | 7.06482 | 15059 ft | 365 kts | 21° |
| 2026-05-07 18:48 | 51.65807 | 7.08026 | 15732 ft | 369 kts | 21° |
| 2026-05-07 18:48 | 51.68197 | 7.09592 | 16416 ft | 372 kts | 21° |
| 2026-05-07 18:48 | 51.70611 | 7.11174 | 17107 ft | 376 kts | 21° |
| 2026-05-07 18:48 | 51.73046 | 7.12766 | 17786 ft | 380 kts | 21° |
| 2026-05-07 18:49 | 51.75504 | 7.14381 | 18450 ft | 383 kts | 22° |
| 2026-05-07 18:49 | 51.77809 | 7.16572 | 19004 ft | 389 kts | 39° |
| 2026-05-07 18:49 | 51.79599 | 7.19866 | 19586 ft | 394 kts | 58° |
| 2026-05-07 18:49 | 51.80649 | 7.23963 | 20179 ft | 398 kts | 77° |
| 2026-05-07 18:50 | 51.80847 | 7.28431 | 20753 ft | 401 kts | 93° |
| 2026-05-07 18:50 | 51.80691 | 7.32952 | 21343 ft | 405 kts | 94° |
| 2026-05-07 18:50 | 51.80520 | 7.37509 | 21917 ft | 408 kts | 94° |
| 2026-05-07 18:50 | 51.80345 | 7.42110 | 22470 ft | 412 kts | 94° |
| 2026-05-07 18:51 | 51.80172 | 7.46745 | 23006 ft | 415 kts | 94° |
| 2026-05-07 18:51 | 51.79998 | 7.51413 | 23544 ft | 418 kts | 94° |
| 2026-05-07 18:51 | 51.79825 | 7.56122 | 23995 ft | 421 kts | 94° |
| 2026-05-07 18:51 | 51.79650 | 7.60868 | 24443 ft | 424 kts | 94° |
| 2026-05-07 18:52 | 51.79475 | 7.65640 | 24880 ft | 427 kts | 94° |
| 2026-05-07 18:52 | 51.79298 | 7.70381 | 25336 ft | 429 kts | 94° |
| 2026-05-07 18:52 | 51.79113 | 7.75204 | 25777 ft | 432 kts | 94° |
| 2026-05-07 18:52 | 51.78925 | 7.80051 | 26215 ft | 434 kts | 94° |
| 2026-05-07 18:53 | 51.78733 | 7.84927 | 26651 ft | 436 kts | 94° |
| 2026-05-07 18:53 | 51.78536 | 7.89830 | 27080 ft | 439 kts | 94° |
| 2026-05-07 18:53 | 51.78336 | 7.94772 | 27512 ft | 441 kts | 94° |
| 2026-05-07 18:53 | 51.78135 | 7.99726 | 27937 ft | 444 kts | 94° |
| 2026-05-07 18:54 | 51.77935 | 8.04712 | 28355 ft | 446 kts | 94° |
| 2026-05-07 18:54 | 51.77729 | 8.09725 | 28763 ft | 448 kts | 94° |
| 2026-05-07 18:54 | 51.77517 | 8.14756 | 29156 ft | 451 kts | 94° |
| 2026-05-07 18:54 | 51.77301 | 8.19819 | 29544 ft | 453 kts | 94° |
| 2026-05-07 18:55 | 51.77081 | 8.24896 | 29935 ft | 455 kts | 94° |
| 2026-05-07 18:55 | 51.76904 | 8.30015 | 30278 ft | 457 kts | 92° |
| 2026-05-07 18:55 | 51.76821 | 8.35149 | 30596 ft | 459 kts | 91° |
| 2026-05-07 18:55 | 51.76801 | 8.40323 | 30910 ft | 461 kts | 90° |
| 2026-05-07 18:56 | 51.76810 | 8.45507 | 31236 ft | 462 kts | 90° |
| 2026-05-07 18:56 | 51.76813 | 8.50683 | 31680 ft | 461 kts | 90° |
| 2026-05-07 18:56 | 51.76798 | 8.55851 | 32124 ft | 459 kts | 90° |
| 2026-05-07 18:56 | 51.76761 | 8.60997 | 32563 ft | 458 kts | 91° |
| 2026-05-07 18:57 | 51.76707 | 8.66131 | 32999 ft | 457 kts | 91° |
| 2026-05-07 18:57 | 51.76645 | 8.71263 | 33425 ft | 456 kts | 91° |
| 2026-05-07 18:57 | 51.76577 | 8.76386 | 33854 ft | 455 kts | 91° |
| 2026-05-07 18:57 | 51.76507 | 8.81484 | 34262 ft | 455 kts | 91° |
| 2026-05-07 18:58 | 51.76440 | 8.86586 | 34596 ft | 454 kts | 91° |
| 2026-05-07 18:58 | 51.76376 | 8.91693 | 34926 ft | 455 kts | 91° |
| 2026-05-07 18:58 | 51.76314 | 8.96804 | 35108 ft | 456 kts | 91° |
| 2026-05-07 18:59 | 51.76179 | 9.06978 | 34517 ft | 452 kts | 91° |
| 2026-05-07 18:59 | 51.76104 | 9.12058 | 33943 ft | 452 kts | 91° |
| 2026-05-07 18:59 | 51.76029 | 9.17130 | 33386 ft | 451 kts | 91° |
| 2026-05-07 18:59 | 51.75954 | 9.22197 | 32977 ft | 452 kts | 91° |
| 2026-05-07 19:00 | 51.75878 | 9.27274 | 32569 ft | 453 kts | 91° |
| 2026-05-07 19:00 | 51.75802 | 9.32361 | 32177 ft | 454 kts | 91° |
| 2026-05-07 19:00 | 51.75721 | 9.37467 | 31787 ft | 455 kts | 91° |
| 2026-05-07 19:00 | 51.75635 | 9.42565 | 31402 ft | 455 kts | 91° |
| 2026-05-07 19:01 | 51.75547 | 9.47676 | 31020 ft | 456 kts | 91° |
| 2026-05-07 19:01 | 51.75456 | 9.52782 | 30643 ft | 455 kts | 91° |
| 2026-05-07 19:01 | 51.75364 | 9.57870 | 30272 ft | 452 kts | 91° |
| 2026-05-07 19:01 | 51.75268 | 9.62937 | 29858 ft | 450 kts | 91° |
| 2026-05-07 19:02 | 51.75172 | 9.67964 | 29422 ft | 447 kts | 91° |
| 2026-05-07 19:02 | 51.75075 | 9.72963 | 28998 ft | 445 kts | 91° |
| 2026-05-07 19:02 | 51.74978 | 9.77934 | 28578 ft | 442 kts | 91° |
| 2026-05-07 19:02 | 51.74880 | 9.82881 | 28164 ft | 439 kts | 91° |
| 2026-05-07 19:03 | 51.74779 | 9.87788 | 27760 ft | 437 kts | 91° |
| 2026-05-07 19:03 | 51.74677 | 9.92673 | 27357 ft | 435 kts | 91° |
| 2026-05-07 19:03 | 51.74572 | 9.97540 | 26956 ft | 433 kts | 92° |
| 2026-05-07 19:03 | 51.74465 | 10.02381 | 26566 ft | 430 kts | 92° |
| 2026-05-07 19:04 | 51.74357 | 10.07194 | 26127 ft | 428 kts | 92° |
| 2026-05-07 19:04 | 51.74249 | 10.11973 | 25623 ft | 426 kts | 92° |
| 2026-05-07 19:04 | 51.74139 | 10.16739 | 25131 ft | 423 kts | 92° |
| 2026-05-07 19:04 | 51.74029 | 10.21475 | 24645 ft | 421 kts | 92° |
| 2026-05-07 19:05 | 51.73918 | 10.26172 | 24171 ft | 418 kts | 92° |
| 2026-05-07 19:05 | 51.73806 | 10.30849 | 23694 ft | 416 kts | 92° |
| 2026-05-07 19:05 | 51.73691 | 10.35502 | 23138 ft | 414 kts | 92° |
| 2026-05-07 19:05 | 51.73578 | 10.40074 | 22595 ft | 411 kts | 92° |
| 2026-05-07 19:06 | 51.73460 | 10.44659 | 22060 ft | 407 kts | 92° |
| 2026-05-07 19:06 | 51.73224 | 10.53716 | 21022 ft | 401 kts | 92° |
| 2026-05-07 19:06 | 51.73103 | 10.58196 | 20506 ft | 398 kts | 92° |
| 2026-05-07 19:07 | 51.72983 | 10.62645 | 20003 ft | 395 kts | 92° |
| 2026-05-07 19:07 | 51.72864 | 10.67060 | 19510 ft | 392 kts | 92° |
| 2026-05-07 19:07 | 51.72743 | 10.71431 | 19023 ft | 389 kts | 92° |
| 2026-05-07 19:07 | 51.72619 | 10.75770 | 18545 ft | 386 kts | 92° |
| 2026-05-07 19:08 | 51.72467 | 10.80066 | 18160 ft | 381 kts | 96° |
| 2026-05-07 19:08 | 51.72028 | 10.84283 | 18096 ft | 382 kts | 103° |
| 2026-05-07 19:08 | 51.71272 | 10.88325 | 18119 ft | 382 kts | 111° |
| 2026-05-07 19:08 | 51.70287 | 10.92367 | 18124 ft | 382 kts | 112° |
| 2026-05-07 19:09 | 51.69322 | 10.96325 | 17751 ft | 378 kts | 111° |
| 2026-05-07 19:09 | 51.68368 | 11.00247 | 17187 ft | 375 kts | 111° |
| 2026-05-07 19:09 | 51.67419 | 11.04143 | 16630 ft | 371 kts | 111° |
| 2026-05-07 19:09 | 51.66479 | 11.07992 | 16080 ft | 368 kts | 111° |
| 2026-05-07 19:10 | 51.65546 | 11.11809 | 15545 ft | 365 kts | 111° |
| 2026-05-07 19:10 | 51.64619 | 11.15597 | 15031 ft | 361 kts | 111° |
| 2026-05-07 19:10 | 51.63712 | 11.19287 | 14514 ft | 357 kts | 111° |
| 2026-05-07 19:10 | 51.62790 | 11.23032 | 14000 ft | 354 kts | 111° |
| 2026-05-07 19:11 | 51.61748 | 11.26550 | 13452 ft | 351 kts | 117° |
| 2026-05-07 19:11 | 51.60773 | 11.30110 | 12909 ft | 346 kts | 103° |
| 2026-05-07 19:11 | 51.60422 | 11.33914 | 12345 ft | 342 kts | 95° |
| 2026-05-07 19:11 | 51.60176 | 11.37705 | 11797 ft | 339 kts | 95° |
| 2026-05-07 19:12 | 51.59938 | 11.41464 | 11267 ft | 337 kts | 95° |
| 2026-05-07 19:12 | 51.59703 | 11.45200 | 10746 ft | 334 kts | 95° |
| 2026-05-07 19:12 | 51.59475 | 11.48846 | 10561 ft | 321 kts | 95° |
| 2026-05-07 19:12 | 51.59253 | 11.52354 | 10435 ft | 307 kts | 95° |
| 2026-05-07 19:13 | 51.59038 | 11.55708 | 10309 ft | 296 kts | 95° |
| 2026-05-07 19:13 | 51.58828 | 11.58950 | 10188 ft | 289 kts | 95° |
| 2026-05-07 19:13 | 51.58620 | 11.62146 | 10099 ft | 286 kts | 95° |
| 2026-05-07 19:13 | 51.58412 | 11.65320 | 9916 ft | 285 kts | 95° |
| 2026-05-07 19:14 | 51.58202 | 11.68486 | 9371 ft | 284 kts | 95° |
| 2026-05-07 19:14 | 51.57994 | 11.71620 | 8836 ft | 281 kts | 95° |
| 2026-05-07 19:14 | 51.57789 | 11.74733 | 8322 ft | 278 kts | 95° |
| 2026-05-07 19:14 | 51.57587 | 11.77815 | 7811 ft | 275 kts | 95° |
| 2026-05-07 19:15 | 51.57388 | 11.80857 | 7308 ft | 273 kts | 95° |
| 2026-05-07 19:15 | 51.57191 | 11.83877 | 6809 ft | 270 kts | 95° |
| 2026-05-07 19:15 | 51.57000 | 11.86860 | 6305 ft | 268 kts | 95° |
| 2026-05-07 19:15 | 51.56807 | 11.89832 | 5780 ft | 267 kts | 96° |
| 2026-05-07 19:16 | 51.56192 | 11.92617 | 5242 ft | 268 kts | 123° |
| 2026-05-07 19:16 | 51.54799 | 11.94567 | 5010 ft | 268 kts | 153° |
| 2026-05-07 19:16 | 51.52990 | 11.95157 | 5004 ft | 269 kts | 183° |
| 2026-05-07 19:16 | 51.51216 | 11.94273 | 5007 ft | 268 kts | 212° |
| 2026-05-07 19:17 | 51.49913 | 11.92254 | 5006 ft | 257 kts | 232° |
| 2026-05-07 19:17 | 51.48868 | 11.90004 | 5004 ft | 246 kts | 234° |
| 2026-05-07 19:17 | 51.47876 | 11.87802 | 4868 ft | 241 kts | 234° |
| 2026-05-07 19:17 | 51.46906 | 11.85631 | 4683 ft | 238 kts | 234° |
| 2026-05-07 19:18 | 51.45922 | 11.83543 | 4462 ft | 237 kts | 225° |
| 2026-05-07 19:18 | 51.44536 | 11.82289 | 4334 ft | 228 kts | 190° |
| 2026-05-07 19:18 | 51.42988 | 11.82167 | 4204 ft | 219 kts | 176° |
| 2026-05-07 19:18 | 51.41486 | 11.82288 | 4090 ft | 214 kts | 174° |
| 2026-05-07 19:19 | 51.40104 | 11.82984 | 4008 ft | 209 kts | 138° |
| 2026-05-07 19:19 | 51.39431 | 11.84947 | 4007 ft | 205 kts | 93° |
| 2026-05-07 19:19 | 51.39529 | 11.87222 | 3999 ft | 205 kts | 83° |
| 2026-05-07 19:19 | 51.39651 | 11.89471 | 3789 ft | 199 kts | 84° |
| 2026-05-07 19:20 | 51.39757 | 11.91620 | 3672 ft | 188 kts | 84° |
| 2026-05-07 19:20 | 51.39857 | 11.93627 | 3539 ft | 176 kts | 84° |
| 2026-05-07 19:20 | 51.39953 | 11.95563 | 3272 ft | 173 kts | 84° |
| 2026-05-07 19:20 | 51.40047 | 11.97470 | 3043 ft | 170 kts | 84° |
| 2026-05-07 19:21 | 51.40136 | 11.99293 | 2994 ft | 155 kts | 84° |
| 2026-05-07 19:21 | 51.40218 | 12.00958 | 2883 ft | 145 kts | 83° |
| 2026-05-07 19:21 | 51.40292 | 12.02491 | 2729 ft | 134 kts | 83° |
| 2026-05-07 19:21 | 51.40364 | 12.03957 | 2556 ft | 131 kts | 83° |
| 2026-05-07 19:22 | 51.40435 | 12.05406 | 2385 ft | 130 kts | 83° |
| 2026-05-07 19:22 | 51.40505 | 12.06839 | 2208 ft | 129 kts | 83° |
| 2026-05-07 19:22 | 51.40574 | 12.08275 | 2030 ft | 129 kts | 83° |
| 2026-05-07 19:22 | 51.40644 | 12.09704 | 1857 ft | 129 kts | 83° |
| 2026-05-07 19:23 | 51.40713 | 12.11138 | 1682 ft | 129 kts | 83° |
| 2026-05-07 19:23 | 51.40782 | 12.12568 | 1494 ft | 129 kts | 83° |
| 2026-05-07 19:23 | 51.40850 | 12.13994 | 1298 ft | 128 kts | 83° |
| 2026-05-07 19:23 | 51.40918 | 12.15417 | 1112 ft | 128 kts | 83° |
| 2026-05-07 19:24 | 51.40985 | 12.16842 | 937 ft | 128 kts | 83° |
| 2026-05-07 19:24 | 51.41053 | 12.18264 | 759 ft | 128 kts | 83° |
| 2026-05-07 19:24 | 51.41098 | 12.19202 | 639 ft | 128 kts | 83° |
| 2026-05-07 19:24 | 51.41166 | 12.20621 | 475 ft | 127 kts | 83° |
| 2026-05-07 19:25 | 51.41228 | 12.21907 | 455 ft | 97 kts | 86° |
| 2026-05-07 19:25 | 51.41273 | 12.22870 | 461 ft | 48 kts | 86° |
| 2026-05-07 19:25 | 51.41289 | 12.23189 | 465 ft | 14 kts | 77° |
| 2026-05-07 19:25 | 51.41364 | 12.23252 | 464 ft | 14 kts | 355° |
| 2026-05-07 19:26 | 51.41434 | 12.23243 | 462 ft | 16 kts | 356° |
| 2026-05-07 19:26 | 51.41514 | 12.23234 | 461 ft | 8 kts | 356° |
| 2026-05-07 19:26 | 51.41521 | 12.23233 | 459 ft | 0 kts | 355° |
| 2026-05-07 19:26 | 51.41523 | 12.23233 | 459 ft | 1 kts | 355° |
| 2026-05-07 19:27 | 51.41541 | 12.23230 | 462 ft | 4 kts | 355° |
| 2026-05-07 19:27 | 51.41582 | 12.23220 | 464 ft | 7 kts | 339° |
| 2026-05-07 19:27 | 51.41616 | 12.23134 | 465 ft | 12 kts | 285° |
| 2026-05-07 19:27 | 51.41643 | 12.22975 | 464 ft | 16 kts | 285° |
| 2026-05-07 19:28 | 51.41672 | 12.22807 | 464 ft | 15 kts | 285° |
| 2026-05-07 19:28 | 51.41701 | 12.22637 | 461 ft | 17 kts | 285° |
| 2026-05-07 19:28 | 51.41731 | 12.22464 | 457 ft | 16 kts | 285° |
| 2026-05-07 19:28 | 51.41762 | 12.22283 | 452 ft | 19 kts | 285° |
| 2026-05-07 19:29 | 51.41795 | 12.22090 | 448 ft | 19 kts | 285° |
| 2026-05-07 19:29 | 51.41823 | 12.21929 | 444 ft | 15 kts | 285° |
| 2026-05-07 19:29 | 51.41856 | 12.21840 | 434 ft | 8 kts | 351° |
| 2026-05-07 19:29 | 51.41898 | 12.21865 | 434 ft | 5 kts | 13° |
| 2026-05-07 19:30 | 51.41922 | 12.21876 | 438 ft | 2 kts | 15° |
| 2026-05-07 19:30 | 51.41926 | 12.21877 | 441 ft | 0 kts | 15° |